createdAt,value
2023-06-22T00:00:28.455Z,6.35
2023-06-22T00:02:56.600Z,6.10
2023-06-22T00:05:24.408Z,6.37
2023-06-22T00:07:52.091Z,6.10
2023-06-22T00:10:19.846Z,6.82
2023-06-22T00:12:47.529Z,6.77
2023-06-22T00:15:16.858Z,6.72
2023-06-22T00:17:44.597Z,7.25
2023-06-22T00:20:13.342Z,7.60
2023-06-22T00:22:41.211Z,6.90
2023-06-22T00:25:09.942Z,7.30
2023-06-22T00:27:38.136Z,7.50
2023-06-22T00:30:06.770Z,7.22
2023-06-22T00:32:35.850Z,8.07
2023-06-22T00:35:03.626Z,7.85
2023-06-22T00:37:31.339Z,7.97
2023-06-22T00:39:59.079Z,8.50
2023-06-22T00:42:27.269Z,8.05
2023-06-22T00:44:55.236Z,8.70
2023-06-22T00:47:23.771Z,8.68
2023-06-22T00:49:53.289Z,9.10
2023-06-22T00:52:22.845Z,9.80
2023-06-22T00:54:51.440Z,9.38
2023-06-22T00:57:19.119Z,9.02
2023-06-22T00:59:47.151Z,9.40
2023-06-22T01:02:14.990Z,10.10
2023-06-22T01:04:42.897Z,10.07
2023-06-22T01:07:19.045Z,11.00
2023-06-22T01:09:51.800Z,10.80
2023-06-22T01:12:20.777Z,10.30
2023-06-22T01:14:53.280Z,10.25
2023-06-22T01:17:22.321Z,11.73
2023-06-22T01:19:53.746Z,11.23
2023-06-22T01:22:24.714Z,10.90
2023-06-22T01:24:59.732Z,10.90
2023-06-22T01:27:35.827Z,11.88
2023-06-22T01:30:06.535Z,12.10
2023-06-22T01:32:37.017Z,12.07
2023-06-22T01:35:06.974Z,12.07
2023-06-22T01:37:36.461Z,12.52
2023-06-22T01:40:06.256Z,12.35
2023-06-22T01:42:34.435Z,13.35
2023-06-22T01:45:02.460Z,13.35
2023-06-22T01:47:32.102Z,14.20
2023-06-22T01:50:00.302Z,14.32
2023-06-22T01:52:28.649Z,14.88
2023-06-22T01:54:58.846Z,13.90
2023-06-22T01:57:26.757Z,13.45
2023-06-22T02:00:00.075Z,14.65
2023-06-22T02:02:32.887Z,16.02
2023-06-22T02:05:03.455Z,16.02
2023-06-22T02:07:35.297Z,16.38
2023-06-22T02:10:04.978Z,16.42
2023-06-22T02:12:33.681Z,16.47
2023-06-22T02:15:02.607Z,17.27
2023-06-22T02:17:34.615Z,17.25
2023-06-22T02:20:09.583Z,17.63
2023-06-22T02:22:37.402Z,17.13
2023-06-22T02:25:05.791Z,17.38
2023-06-22T02:27:33.622Z,17.50
2023-06-22T02:30:01.545Z,17.67
2023-06-22T02:32:29.448Z,18.02
2023-06-22T02:34:58.736Z,18.23
2023-06-22T02:37:30.602Z,18.48
2023-06-22T02:39:58.534Z,18.88
2023-06-22T02:42:26.236Z,19.80
2023-06-22T02:44:54.045Z,19.95
2023-06-22T02:47:21.794Z,19.87
2023-06-22T02:49:49.594Z,20.25
2023-06-22T02:52:18.925Z,20.58
2023-06-22T02:54:47.208Z,19.67
2023-06-22T02:57:15.594Z,19.77
2023-06-22T02:59:43.900Z,18.83
2023-06-22T03:02:12.376Z,18.88
2023-06-22T03:04:40.224Z,19.03
2023-06-22T03:07:08.104Z,20.25
2023-06-22T03:09:37.326Z,21.05
2023-06-22T03:12:05.702Z,21.00
2023-06-22T03:14:33.518Z,21.63
2023-06-22T03:17:04.498Z,21.38
2023-06-22T03:19:32.576Z,21.92
2023-06-22T03:22:01.942Z,21.83
2023-06-22T03:24:30.750Z,21.52
2023-06-22T03:26:59.980Z,22.52
2023-06-22T03:29:31.197Z,21.42
2023-06-22T03:31:59.406Z,22.70
2023-06-22T03:34:27.268Z,22.80
2023-06-22T03:36:55.259Z,23.15
2023-06-22T03:39:23.092Z,22.48
2023-06-22T03:41:50.850Z,22.35
2023-06-22T03:44:20.068Z,23.08
2023-06-22T03:46:47.933Z,23.33
2023-06-22T03:49:15.774Z,23.25
2023-06-22T03:51:43.623Z,22.47
2023-06-22T03:54:11.496Z,23.10
2023-06-22T03:56:39.559Z,23.40
2023-06-22T03:59:07.326Z,24.33
2023-06-22T04:01:37.750Z,22.65
2023-06-22T04:04:06.040Z,23.67
2023-06-22T04:06:34.969Z,23.63
2023-06-22T04:09:02.779Z,24.10
2023-06-22T04:11:30.511Z,25.17
2023-06-22T04:13:58.299Z,23.98
2023-06-22T04:16:26.063Z,25.00
2023-06-22T04:18:55.307Z,24.58
2023-06-22T04:21:23.096Z,25.05
2023-06-22T04:23:50.853Z,24.77
2023-06-22T04:26:21.966Z,24.58
2023-06-22T04:28:52.604Z,23.88
2023-06-22T04:31:20.793Z,23.77
2023-06-22T04:33:48.663Z,24.45
2023-06-22T04:36:17.957Z,24.47
2023-06-22T04:38:45.902Z,23.87
2023-06-22T04:41:15.371Z,25.33
2023-06-22T04:43:43.201Z,25.08
2023-06-22T04:46:10.996Z,25.02
2023-06-22T04:48:38.673Z,23.63
2023-06-22T04:51:06.465Z,23.70
2023-06-22T04:53:35.706Z,23.27
2023-06-22T04:56:05.406Z,24.20
2023-06-22T04:58:33.636Z,23.85
2023-06-22T05:01:01.457Z,24.35
2023-06-22T05:03:29.453Z,21.93
2023-06-22T05:05:57.429Z,23.42
2023-06-22T05:08:27.842Z,22.45
2023-06-22T05:11:04.735Z,22.83
2023-06-22T05:13:33.348Z,22.63
2023-06-22T05:16:03.633Z,22.42
2023-06-22T05:18:32.018Z,22.50
2023-06-22T05:21:00.512Z,21.30
2023-06-22T05:23:28.567Z,21.23
2023-06-22T05:25:59.129Z,19.20
2023-06-22T05:28:27.148Z,21.52
2023-06-22T05:30:55.448Z,20.33
2023-06-22T05:33:23.294Z,21.20
2023-06-22T05:35:51.078Z,20.35
2023-06-22T05:38:18.841Z,18.20
2023-06-22T05:40:46.663Z,19.52
2023-06-22T05:43:15.941Z,18.73
2023-06-22T05:45:43.897Z,18.77
2023-06-22T05:48:11.701Z,17.67
2023-06-22T05:50:39.780Z,16.77
2023-06-22T05:53:08.853Z,16.13
2023-06-22T05:55:36.762Z,16.35
2023-06-22T05:58:05.563Z,14.63
2023-06-22T06:00:34.971Z,15.48
2023-06-22T06:03:04.540Z,16.67
2023-06-22T06:05:32.585Z,15.37
2023-06-22T06:08:01.034Z,15.13
2023-06-22T06:10:31.048Z,15.45
2023-06-22T06:12:59.083Z,13.65
2023-06-22T06:15:27.034Z,14.23
2023-06-22T06:17:56.544Z,12.25
2023-06-22T06:20:25.657Z,11.40
2023-06-22T06:22:53.422Z,11.38
2023-06-22T06:25:22.928Z,10.60
2023-06-22T06:27:52.351Z,9.77
2023-06-22T06:30:21.067Z,10.43
2023-06-22T06:32:49.277Z,11.23
2023-06-22T06:35:18.579Z,11.50
2023-06-22T06:37:49.689Z,11.20
2023-06-22T06:40:18.448Z,10.30
2023-06-22T06:42:47.304Z,11.07
2023-06-22T06:45:17.760Z,9.55
2023-06-22T06:47:45.752Z,9.00
2023-06-22T06:50:14.251Z,9.93
2023-06-22T06:52:43.608Z,10.48
2023-06-22T06:55:13.310Z,9.52
2023-06-22T06:57:41.660Z,8.82
2023-06-22T07:00:13.320Z,8.60
2023-06-22T07:02:42.334Z,8.30
2023-06-22T07:05:10.679Z,7.22
2023-06-22T07:07:38.943Z,9.17
2023-06-22T07:10:09.165Z,7.90
2023-06-22T07:12:37.209Z,7.40
2023-06-22T07:15:06.264Z,7.65
2023-06-22T07:17:34.309Z,6.55
2023-06-22T07:20:02.420Z,7.28
2023-06-22T07:22:30.448Z,6.18
2023-06-22T07:24:58.220Z,7.30
2023-06-22T07:27:28.130Z,7.95
2023-06-22T07:29:56.442Z,6.43
2023-06-22T07:32:24.223Z,8.03
2023-06-22T07:34:52.259Z,7.60
2023-06-22T07:37:20.033Z,6.50
2023-06-22T07:39:47.897Z,7.00
2023-06-22T07:42:19.764Z,7.20
2023-06-22T07:44:49.010Z,7.57
2023-06-22T07:47:18.985Z,6.60
2023-06-22T07:49:46.831Z,7.40
2023-06-22T07:52:14.792Z,7.25
2023-06-22T07:54:42.557Z,7.20
2023-06-22T07:57:10.365Z,7.20
2023-06-22T07:59:39.345Z,6.72
2023-06-22T08:02:09.873Z,7.20
2023-06-22T08:07:01.443Z,6.10
2023-06-22T08:09:30.300Z,5.95
2023-06-22T08:11:58.035Z,7.47
2023-06-22T08:14:25.889Z,6.18
2023-06-22T08:16:53.642Z,5.37
2023-06-22T08:19:21.353Z,6.55
2023-06-22T08:21:49.261Z,6.18
2023-06-22T08:24:18.469Z,6.30
2023-06-22T08:26:46.193Z,6.10
2023-06-22T08:29:13.966Z,5.68
2023-06-22T08:31:41.750Z,6.25
2023-06-22T08:34:09.517Z,6.78
2023-06-22T08:36:42.428Z,5.82
2023-06-22T08:39:10.333Z,6.10
2023-06-22T11:17:32.651Z,5.75
2023-06-22T11:20:01.350Z,5.60
2023-06-22T11:22:29.368Z,5.70
2023-06-22T11:25:57.814Z,6.10
2023-06-22T11:28:25.704Z,5.95
2023-06-22T11:30:54.329Z,5.88
2023-06-22T11:33:22.127Z,5.18
2023-06-22T11:35:49.953Z,5.55
2023-06-22T11:38:49.914Z,5.05
2023-06-22T11:41:17.749Z,6.05
2023-06-22T11:43:46.659Z,4.90
2023-06-22T11:46:14.517Z,5.38
2023-06-22T11:49:19.919Z,5.18
2023-06-22T11:51:47.690Z,5.72
2023-06-22T11:54:15.609Z,5.60
2023-06-22T11:56:43.407Z,4.53
2023-06-22T11:59:11.141Z,6.15
2023-06-22T12:01:38.994Z,5.43
2023-06-22T12:04:07.033Z,5.97
2023-06-22T12:06:39.299Z,6.63
2023-06-22T12:09:07.099Z,6.37
2023-06-22T12:11:34.949Z,6.57
2023-06-22T12:14:03.579Z,5.47
2023-06-22T12:16:31.458Z,5.60
2023-06-22T12:18:59.267Z,6.15
2023-06-22T12:21:27.284Z,5.38
2023-06-22T12:23:56.473Z,6.10
2023-06-22T12:26:24.276Z,6.57
2023-06-22T12:28:51.993Z,6.20
2023-06-22T12:31:19.798Z,5.95
2023-06-22T12:34:31.017Z,5.93
2023-06-22T12:36:58.859Z,6.28
2023-06-22T12:39:26.775Z,5.90
2023-06-22T12:41:54.605Z,5.55
2023-06-22T12:44:22.380Z,5.25
2023-06-22T12:46:50.157Z,6.00
2023-06-22T12:49:18.158Z,6.30
2023-06-22T12:51:47.491Z,6.45
2023-06-22T12:54:15.218Z,6.33
2023-06-22T12:56:44.898Z,6.80
2023-06-22T12:59:12.727Z,6.47
2023-06-22T13:02:25.326Z,7.22
2023-06-22T13:04:53.201Z,7.15
2023-06-22T13:07:23.841Z,8.93
2023-06-22T13:09:53.519Z,8.88
2023-06-22T13:13:17.724Z,9.83
2023-06-22T13:15:45.615Z,11.65
2023-06-22T13:18:13.353Z,11.32
2023-06-22T13:20:41.089Z,11.60
2023-06-22T13:23:09.399Z,12.02
2023-06-22T13:25:37.408Z,12.40
2023-06-22T13:28:07.660Z,12.88
2023-06-22T13:30:37.212Z,13.43
2023-06-22T13:33:05.253Z,13.60
2023-06-22T13:35:33.502Z,13.30
2023-06-22T13:38:01.354Z,13.57
2023-06-22T13:40:29.133Z,13.27
2023-06-22T13:42:57.361Z,13.90
2023-06-22T13:45:25.323Z,14.02
2023-06-22T13:47:54.613Z,15.55
2023-06-22T13:50:22.528Z,15.37
2023-06-22T13:52:50.411Z,17.08
2023-06-22T13:55:18.301Z,16.83
2023-06-22T13:57:46.113Z,16.20
2023-06-22T14:00:15.056Z,16.80
2023-06-22T14:02:42.974Z,17.30
2023-06-22T14:05:13.093Z,16.48
2023-06-22T14:07:41.089Z,16.05
2023-06-22T14:10:09.602Z,16.88
2023-06-22T14:12:37.495Z,18.88
2023-06-22T14:15:06.103Z,17.60
2023-06-22T14:17:33.974Z,17.60
2023-06-22T14:20:01.691Z,18.02
2023-06-22T14:22:31.278Z,18.85
2023-06-22T14:24:59.841Z,19.13
2023-06-22T14:27:53.291Z,19.80
2023-06-22T14:30:21.032Z,19.88
2023-06-22T14:32:49.060Z,19.07
2023-06-22T14:35:17.053Z,19.58
2023-06-22T14:37:44.910Z,19.58
2023-06-22T14:40:16.486Z,18.95
2023-06-22T14:42:44.531Z,19.33
2023-06-22T14:45:15.153Z,19.08
2023-06-22T14:47:43.138Z,18.20
2023-06-22T14:50:11.378Z,18.50
2023-06-22T14:52:39.226Z,18.90
2023-06-22T14:55:08.153Z,18.15
2023-06-22T14:57:36.033Z,19.20
2023-06-22T15:00:04.071Z,17.97
2023-06-22T15:02:33.470Z,17.98
2023-06-22T15:05:01.337Z,18.75
2023-06-22T15:07:29.153Z,20.35
2023-06-22T15:09:56.976Z,18.73
2023-06-22T15:12:24.725Z,19.37
2023-06-22T15:14:52.528Z,22.23
2023-06-22T15:17:20.359Z,18.30
2023-06-22T15:19:49.567Z,19.05
2023-06-22T15:22:19.210Z,20.00
2023-06-22T15:24:48.844Z,19.15
2023-06-22T15:27:16.895Z,20.05
2023-06-22T15:29:44.731Z,18.67
2023-06-22T15:32:12.456Z,18.65
2023-06-22T15:34:40.434Z,18.17
2023-06-22T15:37:09.774Z,18.30
2023-06-22T15:39:37.536Z,22.60
2023-06-22T15:42:05.464Z,23.40
2023-06-22T15:44:33.246Z,17.38
2023-06-22T15:47:01.009Z,19.07
2023-06-22T15:49:29.099Z,17.55
2023-06-22T15:51:56.795Z,17.53
2023-06-22T15:54:26.104Z,18.48
2023-06-22T15:56:53.842Z,17.13
2023-06-22T15:59:21.734Z,17.25
2023-06-22T16:01:49.637Z,17.48
2023-06-22T16:04:17.427Z,18.00
2023-06-22T16:06:45.229Z,16.92
2023-06-22T16:09:15.114Z,17.77
2023-06-22T16:11:46.044Z,16.93
2023-06-22T16:14:38.754Z,16.45
2023-06-22T16:17:06.912Z,18.27
2023-06-22T16:19:34.793Z,17.30
2023-06-22T16:22:02.596Z,18.03
2023-06-22T16:24:30.436Z,18.67
2023-06-22T16:28:45.800Z,18.33
2023-06-22T16:31:13.622Z,18.75
2023-06-22T16:33:47.746Z,18.75
2023-06-22T16:36:15.859Z,18.42
2023-06-22T16:38:44.243Z,18.92
2023-06-22T16:41:12.604Z,20.73
2023-06-22T16:43:40.597Z,20.38
2023-06-22T16:46:10.291Z,19.73
2023-06-22T16:48:38.450Z,19.55
2023-06-22T16:51:06.477Z,19.48
2023-06-22T16:56:31.456Z,19.67
2023-06-22T16:59:06.943Z,21.03
2023-06-22T17:01:38.061Z,19.53
2023-06-22T17:04:09.854Z,20.90
2023-06-22T17:06:38.127Z,20.08
2023-06-22T17:09:05.986Z,20.60
2023-06-22T17:11:35.130Z,20.88
2023-06-22T17:14:03.069Z,20.95
2023-06-22T17:16:33.295Z,19.73
2023-06-22T17:19:04.867Z,20.25
2023-06-22T17:21:34.060Z,20.88
2023-06-22T17:24:02.903Z,21.02
2023-06-22T17:26:32.523Z,20.42
2023-06-22T17:29:03.996Z,19.90
2023-06-22T17:31:39.208Z,19.13
2023-06-22T17:34:10.858Z,20.65
2023-06-22T17:36:45.675Z,19.83
2023-06-22T17:39:14.860Z,19.52
2023-06-22T17:41:44.965Z,18.95
2023-06-22T17:44:15.634Z,18.33
2023-06-22T17:46:44.146Z,17.77
2023-06-22T17:49:12.709Z,17.38
2023-06-22T17:51:41.688Z,17.98
2023-06-22T17:54:09.542Z,17.15
2023-06-22T17:56:37.596Z,17.38
2023-06-22T17:59:05.728Z,16.17
2023-06-22T18:01:36.515Z,15.05
2023-06-22T18:04:08.412Z,15.40
2023-06-22T18:06:39.131Z,15.75
2023-06-22T18:09:09.060Z,15.70
2023-06-22T18:11:39.469Z,15.10
2023-06-22T18:14:07.470Z,15.73
2023-06-22T18:16:37.357Z,15.17
2023-06-22T18:19:05.364Z,13.90
2023-06-22T18:21:33.268Z,13.38
2023-06-22T18:24:01.857Z,13.85
2023-06-22T18:26:29.798Z,13.23
2023-06-22T18:28:58.641Z,12.73
2023-06-22T18:31:27.437Z,13.38
2023-06-22T18:33:58.667Z,11.93
2023-06-22T18:36:28.570Z,11.60
2023-06-22T18:38:59.718Z,11.03
2023-06-22T18:41:36.110Z,10.57
2023-06-22T18:44:04.921Z,10.70
2023-06-22T18:46:36.949Z,11.07
2023-06-22T18:49:13.243Z,10.60
2023-06-22T18:51:55.019Z,9.47
2023-06-22T18:54:24.842Z,9.10
2023-06-22T18:56:57.055Z,8.57
2023-06-22T18:59:44.186Z,8.10
2023-06-22T19:02:12.828Z,7.72
2023-06-22T19:04:42.884Z,6.68
2023-06-22T19:07:13.089Z,6.53
2023-06-22T19:09:41.201Z,6.75
2023-06-22T19:12:19.759Z,6.05
2023-06-22T19:15:13.186Z,6.18
2023-06-22T19:17:43.921Z,6.50
2023-06-22T19:20:14.442Z,6.30
2023-06-22T19:22:49.837Z,7.03
2023-06-22T19:25:21.919Z,6.68
2023-06-22T19:27:52.055Z,6.78
2023-06-22T19:30:20.094Z,7.28
2023-06-22T19:32:48.713Z,6.70
2023-06-22T19:35:18.627Z,7.03
2023-06-22T19:37:47.534Z,7.97
2023-06-22T19:40:22.088Z,8.77
2023-06-22T19:42:55.342Z,8.23
2023-06-22T19:45:23.239Z,8.97
2023-06-22T19:47:52.379Z,8.30
2023-06-22T19:50:25.907Z,7.90
2023-06-22T19:52:56.784Z,5.63
2023-06-22T19:55:24.657Z,5.63
2023-06-22T19:57:52.517Z,5.00
2023-06-22T20:00:23.552Z,4.85
2023-06-22T20:02:52.735Z,4.07
2023-06-22T20:05:22.991Z,3.90
2023-06-22T20:07:50.896Z,3.75
2023-06-22T20:10:20.771Z,3.25
2023-06-22T20:12:50.950Z,4.33
2023-06-22T20:15:26.852Z,3.88
2023-06-22T20:17:55.983Z,4.20
2023-06-22T20:20:26.690Z,3.83
2023-06-22T20:22:57.161Z,3.83
2023-06-22T20:25:26.142Z,4.35
2023-06-22T20:27:54.043Z,4.57
2023-06-22T20:30:23.283Z,4.95
2023-06-22T20:32:52.035Z,5.07
2023-06-22T20:35:21.391Z,4.82
2023-06-22T20:37:54.615Z,4.93
2023-06-22T20:40:27.525Z,5.50
2023-06-22T20:42:58.425Z,5.53
2023-06-22T20:45:26.622Z,5.80
2023-06-22T20:47:56.998Z,5.38
2023-06-22T20:50:29.156Z,5.28
2023-06-22T20:52:58.915Z,5.47
2023-06-22T20:55:26.903Z,5.40
2023-06-22T20:57:55.885Z,5.45
2023-06-22T21:00:24.081Z,5.05
2023-06-22T21:02:53.637Z,5.40
2023-06-22T21:05:21.757Z,5.10
2023-06-22T21:07:50.092Z,5.57
2023-06-22T21:10:19.383Z,5.30
2023-06-22T21:12:47.155Z,5.28
2023-06-22T21:15:14.955Z,5.60
2023-06-22T21:17:42.826Z,5.20
2023-06-22T21:20:11.394Z,5.18
2023-06-22T21:22:39.650Z,5.07
2023-06-22T21:25:09.084Z,4.90
2023-06-22T21:27:38.528Z,4.90
2023-06-22T21:30:08.191Z,4.70
2023-06-22T21:32:36.234Z,4.72
2023-06-22T21:35:04.089Z,4.57
2023-06-22T21:37:32.091Z,4.72
2023-06-22T21:39:59.879Z,4.75
2023-06-22T21:42:28.426Z,4.90
2023-06-22T21:44:58.092Z,5.10
2023-06-22T21:47:26.956Z,4.80
2023-06-22T21:49:54.774Z,5.15
2023-06-22T21:52:22.831Z,5.47
2023-06-22T21:54:50.620Z,5.30
2023-06-22T21:57:18.318Z,4.30
2023-06-22T21:59:46.182Z,5.00
2023-06-22T22:02:15.474Z,4.77
2023-06-22T22:04:43.251Z,4.60
2023-06-22T22:07:11.068Z,5.03
2023-06-22T22:09:38.920Z,4.80
2023-06-22T22:12:07.670Z,4.50
2023-06-22T22:14:36.069Z,4.78
2023-06-22T22:17:03.933Z,4.57
2023-06-22T22:19:33.234Z,4.43
2023-06-22T22:22:01.042Z,4.40
2023-06-22T22:24:28.844Z,4.25
2023-06-22T22:26:56.620Z,4.85
2023-06-22T22:29:24.312Z,4.90
2023-06-22T22:31:52.080Z,4.53
2023-06-22T22:34:19.979Z,5.00
2023-06-22T22:36:49.175Z,4.30
2023-06-22T22:39:31.673Z,4.75
2023-06-22T22:42:00.541Z,5.30
2023-06-22T22:44:28.467Z,5.63
2023-06-22T22:46:56.652Z,5.47
2023-06-22T22:49:24.774Z,6.10
2023-06-22T22:51:54.412Z,6.20
2023-06-22T22:54:22.296Z,6.53
2023-06-22T22:56:50.463Z,6.13
2023-06-22T22:59:18.331Z,6.68
2023-06-22T23:01:46.260Z,6.50
2023-06-22T23:04:19.112Z,6.97
2023-06-22T23:06:46.881Z,7.18
2023-06-22T23:09:16.058Z,7.55
2023-06-22T23:11:43.875Z,7.95
2023-06-22T23:14:11.850Z,8.25
2023-06-22T23:16:40.130Z,7.97
2023-06-22T23:19:08.133Z,8.00
2023-06-22T23:21:35.948Z,8.27
2023-06-22T23:24:05.499Z,8.23
2023-06-22T23:26:34.776Z,8.20
2023-06-22T23:29:02.804Z,8.32
2023-06-22T23:31:34.302Z,7.95
2023-06-22T23:34:04.505Z,7.97
2023-06-22T23:36:32.319Z,7.45
2023-06-22T23:39:00.199Z,7.57
2023-06-22T23:41:28.761Z,7.00
2023-06-22T23:43:57.988Z,7.00
2023-06-22T23:46:25.936Z,6.70
2023-06-22T23:48:53.813Z,6.50
2023-06-22T23:51:21.619Z,6.83
2023-06-22T23:53:49.658Z,7.20
2023-06-22T23:56:17.518Z,6.35
2023-06-22T23:58:45.386Z,6.57
